Time,TemperatureF,DewpointF,PressureIn,WindDirection,WindDirectionDegrees,WindSpeedMPH,WindSpeedGustMPH,Humidity,HourlyPrecipIn,Conditions,Clouds,dailyrainin,SoftwareType,DateUTC
2013-07-26 00:02:00,64.5,63.0,30.06,NNW,348,0.0,0.0,95,0.00,CLR,FEW,0.00,WeatherDisplay:10.37,2013-07-26 05:02:00,
2013-07-26 00:07:00,64.4,62.9,30.06,NNW,348,0.0,0.0,95,0.00,CLR,FEW,0.00,WeatherDisplay:10.37,2013-07-26 05:07:00,
2013-07-26 00:12:00,64.4,63.2,30.06,NNW,348,0.0,0.0,96,0.00,CLR,FEW,0.00,WeatherDisplay:10.37,2013-07-26 05:12:00,
2013-07-26 00:17:00,64.3,63.1,30.06,NNW,348,0.0,0.0,96,0.00,CLR,FEW,0.00,WeatherDisplay:10.37,2013-07-26 05:17:00,
2013-07-26 00:22:00,64.1,62.6,30.06,NNW,348,0.0,0.0,95,0.00,CLR,FEW,0.00,WeatherDisplay:10.37,2013-07-26 05:22:00,
2013-07-26 00:27:00,64.1,62.9,30.06,NNW,348,0.0,0.0,96,0.00,CLR,FEW,0.00,WeatherDisplay:10.37,2013-07-26 05:27:00,
2013-07-26 00:32:00,64.1,62.9,30.06,NNW,348,0.0,0.0,96,0.00,CLR,FEW,0.00,WeatherDisplay:10.37,2013-07-26 05:32:00,
2013-07-26 00:37:00,64.0,62.5,30.06,NNW,348,0.0,0.0,95,0.00,CLR,FEW,0.00,WeatherDisplay:10.37,2013-07-26 05:37:00,
2013-07-26 00:42:00,63.8,62.3,30.06,NNW,348,0.0,0.0,95,0.00,CLR,FEW,0.00,WeatherDisplay:10.37,2013-07-26 05:42:00,
2013-07-26 00:47:00,63.6,62.4,30.06,NNW,348,0.0,0.0,96,0.00,CLR,FEW,0.00,WeatherDisplay:10.37,2013-07-26 05:47:00,
2013-07-26 00:52:00,63.6,62.4,30.06,NNW,348,0.0,0.0,96,0.00,CLR,FEW,0.00,WeatherDisplay:10.37,2013-07-26 05:52:00,
2013-07-26 00:57:00,63.6,62.4,30.06,NNW,348,0.0,0.0,96,0.00,CLR,FEW,0.00,WeatherDisplay:10.37,2013-07-26 05:57:00,
2013-07-26 01:02:00,63.6,62.4,30.07,NNW,348,0.0,0.0,96,0.00,CLR,FEW,0.00,WeatherDisplay:10.37,2013-07-26 06:02:00,
2013-07-26 01:07:00,63.5,62.3,30.06,NNW,348,0.0,0.0,96,0.00,CLR,FEW,0.00,WeatherDisplay:10.37,2013-07-26 06:07:00,
2013-07-26 01:12:00,63.4,62.2,30.06,NNW,348,0.0,0.0,96,0.00,CLR,FEW,0.00,WeatherDisplay:10.37,2013-07-26 06:12:00,
2013-07-26 01:17:00,63.2,62.0,30.06,NNW,348,0.0,0.0,96,0.00,CLR,FEW,0.00,WeatherDisplay:10.37,2013-07-26 06:17:00,
2013-07-26 01:22:00,63.1,61.9,30.06,NNW,348,0.0,0.0,96,0.00,CLR,FEW,0.00,WeatherDisplay:10.37,2013-07-26 06:22:00,
2013-07-26 01:27:00,63.0,61.8,30.06,NNW,348,0.0,0.0,96,0.00,CLR,FEW,0.00,WeatherDisplay:10.37,2013-07-26 06:27:00,
2013-07-26 01:32:00,63.0,61.8,30.06,NNW,348,0.0,0.0,96,0.00,CLR,FEW,0.00,WeatherDisplay:10.37,2013-07-26 06:32:00,
2013-07-26 01:37:00,63.0,61.8,30.06,NNW,348,0.0,0.0,96,0.00,CLR,FEW,0.00,WeatherDisplay:10.37,2013-07-26 06:37:00,
2013-07-26 01:42:00,62.9,61.7,30.06,NNW,348,0.0,0.0,96,0.00,CLR,FEW,0.00,WeatherDisplay:10.37,2013-07-26 06:42:00,
2013-07-26 01:47:00,62.7,61.5,30.06,NNW,348,0.0,0.0,96,0.00,CLR,FEW,0.00,WeatherDisplay:10.37,2013-07-26 06:47:00,
2013-07-26 01:52:00,62.8,61.6,30.05,NNW,348,0.0,0.0,96,0.00,CLR,FEW,0.00,WeatherDisplay:10.37,2013-07-26 06:52:00,
2013-07-26 01:57:00,62.9,61.7,30.05,NNW,348,0.0,0.0,96,0.00,CLR,FEW,0.00,WeatherDisplay:10.37,2013-07-26 06:57:00,
2013-07-26 02:02:00,62.8,61.6,30.05,NNW,348,0.0,0.0,96,0.00,CLR,FEW,0.00,WeatherDisplay:10.37,2013-07-26 07:02:00,
2013-07-26 02:07:00,62.6,61.4,30.05,NNW,348,0.0,0.0,96,0.00,CLR,FEW,0.00,WeatherDisplay:10.37,2013-07-26 07:07:00,
2013-07-26 02:12:00,62.5,61.3,30.05,NNW,348,0.0,0.0,96,0.00,CLR,FEW,0.00,WeatherDisplay:10.37,2013-07-26 07:12:00,
2013-07-26 02:17:00,62.5,61.3,30.05,NNW,348,0.0,0.0,96,0.00,CLR,FEW,0.00,WeatherDisplay:10.37,2013-07-26 07:17:00,
2013-07-26 02:22:00,62.5,61.6,30.05,NNW,348,0.0,0.0,97,0.00,CLR,FEW,0.00,WeatherDisplay:10.37,2013-07-26 07:22:00,
2013-07-26 02:28:00,62.5,61.3,30.05,NNW,348,0.0,0.0,96,0.00,CLR,FEW,0.00,WeatherDisplay:10.37,2013-07-26 07:28:00,
2013-07-26 02:33:00,62.3,61.1,30.05,NNW,348,0.0,0.0,96,0.00,CLR,FEW,0.00,WeatherDisplay:10.37,2013-07-26 07:33:00,
2013-07-26 02:38:00,62.3,61.1,30.05,NNW,348,0.0,0.0,96,0.00,CLR,FEW,0.00,WeatherDisplay:10.37,2013-07-26 07:38:00,
2013-07-26 02:43:00,62.2,61.0,30.04,NNW,348,0.0,0.0,96,0.00,CLR,FEW,0.00,WeatherDisplay:10.37,2013-07-26 07:43:00,
2013-07-26 02:48:00,62.1,60.9,30.04,NNW,348,0.0,0.0,96,0.00,CLR,FEW,0.00,WeatherDisplay:10.37,2013-07-26 07:48:00,
2013-07-26 02:53:00,62.0,60.8,30.04,NNW,348,0.0,0.0,96,0.00,CLR,FEW,0.00,WeatherDisplay:10.37,2013-07-26 07:53:00,
2013-07-26 02:58:00,61.9,60.7,30.04,NNW,348,0.0,0.0,96,0.00,CLR,FEW,0.00,WeatherDisplay:10.37,2013-07-26 07:58:00,
2013-07-26 03:03:00,61.8,60.6,30.04,NNW,348,0.0,0.0,96,0.00,CLR,FEW,0.00,WeatherDisplay:10.37,2013-07-26 08:03:00,
2013-07-26 03:08:00,61.7,60.5,30.04,NNW,348,0.0,0.0,96,0.00,CLR,FEW,0.00,WeatherDisplay:10.37,2013-07-26 08:08:00,
2013-07-26 03:13:00,61.5,60.3,30.04,NNW,348,0.0,0.0,96,0.00,CLR,FEW,0.00,WeatherDisplay:10.37,2013-07-26 08:13:00,
2013-07-26 03:18:00,61.3,60.2,30.05,NNW,348,0.0,0.0,96,0.00,CLR,FEW,0.00,WeatherDisplay:10.37,2013-07-26 08:18:00,
2013-07-26 03:23:00,61.2,60.1,30.05,NNW,348,0.0,0.0,96,0.00,CLR,FEW,0.00,WeatherDisplay:10.37,2013-07-26 08:23:00,
2013-07-26 03:28:00,61.1,60.0,30.05,NNW,348,0.0,0.0,96,0.00,CLR,FEW,0.00,WeatherDisplay:10.37,2013-07-26 08:28:00,
2013-07-26 03:33:00,61.2,60.3,30.05,NNW,348,0.0,0.0,97,0.00,CLR,FEW,0.00,WeatherDisplay:10.37,2013-07-26 08:33:00,
2013-07-26 03:38:00,61.3,60.4,30.04,NNW,348,0.0,0.0,97,0.00,CLR,FEW,0.00,WeatherDisplay:10.37,2013-07-26 08:38:00,
2013-07-26 03:43:00,61.4,60.5,30.03,ESE,107,0.0,0.0,97,0.00,CLR,FEW,0.00,WeatherDisplay:10.37,2013-07-26 08:43:00,
2013-07-26 03:48:00,61.5,60.6,30.03,ESE,107,0.0,0.0,97,0.00,CLR,FEW,0.00,WeatherDisplay:10.37,2013-07-26 08:48:00,
2013-07-26 03:53:00,61.5,60.6,30.02,ESE,107,0.0,0.0,97,0.00,CLR,FEW,0.00,WeatherDisplay:10.37,2013-07-26 08:53:00,
2013-07-26 03:58:00,61.5,60.3,30.02,ESE,107,0.0,0.0,96,0.00,CLR,FEW,0.00,WeatherDisplay:10.37,2013-07-26 08:58:00,
2013-07-26 04:03:00,61.4,60.2,30.02,ESE,107,0.0,0.0,96,0.00,CLR,FEW,0.00,WeatherDisplay:10.37,2013-07-26 09:03:00,
2013-07-26 04:08:00,61.2,60.1,30.02,ESE,107,0.0,0.0,96,0.00,CLR,FEW,0.00,WeatherDisplay:10.37,2013-07-26 09:08:00,
2013-07-26 04:13:00,61.0,59.9,30.03,ESE,107,0.0,0.0,96,0.00,CLR,FEW,0.00,WeatherDisplay:10.37,2013-07-26 09:13:00,
2013-07-26 04:18:00,60.8,59.7,30.03,ESE,107,0.0,0.0,96,0.00,CLR,FEW,0.00,WeatherDisplay:10.37,2013-07-26 09:18:00,
2013-07-26 04:23:00,60.6,59.5,30.03,ESE,107,0.0,0.0,96,0.00,CLR,FEW,0.00,WeatherDisplay:10.37,2013-07-26 09:23:00,
2013-07-26 04:28:00,60.5,59.4,30.03,ESE,107,0.0,0.0,96,0.00,CLR,FEW,0.00,WeatherDisplay:10.37,2013-07-26 09:28:00,
2013-07-26 04:33:00,60.5,59.4,30.03,ESE,107,0.0,0.0,96,0.00,CLR,FEW,0.00,WeatherDisplay:10.37,2013-07-26 09:33:00,
2013-07-26 04:38:00,60.6,59.7,30.03,ESE,107,0.0,0.0,97,0.00,CLR,FEW,0.00,WeatherDisplay:10.37,2013-07-26 09:38:00,
2013-07-26 04:43:00,60.7,59.8,30.03,ESE,107,0.0,0.0,97,0.00,CLR,FEW,0.00,WeatherDisplay:10.37,2013-07-26 09:43:00,
2013-07-26 04:48:00,60.8,59.9,30.03,ESE,107,0.0,0.0,97,0.00,CLR,FEW,0.00,WeatherDisplay:10.37,2013-07-26 09:48:00,
2013-07-26 04:53:00,60.8,59.9,30.03,ESE,107,0.0,0.0,97,0.00,CLR,FEW,0.00,WeatherDisplay:10.37,2013-07-26 09:53:00,
2013-07-26 04:58:00,60.9,60.0,30.03,ESE,107,0.0,0.0,97,0.00,CLR,FEW,0.00,WeatherDisplay:10.37,2013-07-26 09:58:00,
2013-07-26 05:03:00,60.9,60.0,30.03,ESE,107,0.0,0.0,97,0.00,CLR,FEW,0.00,WeatherDisplay:10.37,2013-07-26 10:03:00,
2013-07-26 05:08:00,61.0,60.1,30.04,ESE,107,0.0,0.0,97,0.00,CLR,FEW,0.00,WeatherDisplay:10.37,2013-07-26 10:08:00,
2013-07-26 05:13:00,61.1,60.2,30.03,ESE,107,0.0,0.0,97,0.00,CLR,FEW,0.00,WeatherDisplay:10.37,2013-07-26 10:13:00,
2013-07-26 05:18:00,61.2,60.3,30.03,ESE,107,0.0,0.0,97,0.00,CLR,FEW,0.00,WeatherDisplay:10.37,2013-07-26 10:18:00,
2013-07-26 05:23:00,61.2,60.3,30.03,ESE,107,0.0,0.0,97,0.00,CLR,FEW,0.00,WeatherDisplay:10.37,2013-07-26 10:23:00,
2013-07-26 05:28:00,61.2,60.3,30.04,ESE,107,0.0,0.0,97,0.00,CLR,FEW,0.00,WeatherDisplay:10.37,2013-07-26 10:28:00,
2013-07-26 05:33:00,61.2,60.3,30.04,ESE,107,0.0,0.0,97,0.00,CLR,FEW,0.00,WeatherDisplay:10.37,2013-07-26 10:33:00,
2013-07-26 05:38:00,61.3,60.4,30.04,ESE,107,0.0,0.0,97,0.00,CLR,FEW,0.00,WeatherDisplay:10.37,2013-07-26 10:38:00,
2013-07-26 05:43:00,61.3,60.7,30.04,ESE,107,0.0,0.0,98,0.00,CLR,FEW,0.00,WeatherDisplay:10.37,2013-07-26 10:43:00,
2013-07-26 05:48:00,61.4,60.8,30.05,ESE,107,0.0,0.0,98,0.00,CLR,FEW,0.00,WeatherDisplay:10.37,2013-07-26 10:48:00,
2013-07-26 05:53:00,61.4,60.5,30.05,ESE,107,0.0,0.0,97,0.00,CLR,FEW,0.00,WeatherDisplay:10.37,2013-07-26 10:53:00,
2013-07-26 05:58:00,61.4,60.8,30.05,ESE,107,0.0,0.0,98,0.00,CLR,FEW,0.00,WeatherDisplay:10.37,2013-07-26 10:58:00,
2013-07-26 06:03:00,61.4,60.8,30.05,ESE,107,0.0,0.0,98,0.00,CLR,FEW,0.00,WeatherDisplay:10.37,2013-07-26 11:03:00,
2013-07-26 06:08:00,61.3,60.4,30.05,ESE,107,0.0,0.0,97,0.00,CLR,FEW,0.00,WeatherDisplay:10.37,2013-07-26 11:08:00,
2013-07-26 06:13:00,61.1,60.2,30.05,ESE,107,0.0,0.0,97,0.00,CLR,FEW,0.00,WeatherDisplay:10.37,2013-07-26 11:13:00,
2013-07-26 06:18:00,61.0,60.1,30.05,ESE,107,0.0,0.0,97,0.00,CLR,FEW,0.00,WeatherDisplay:10.37,2013-07-26 11:18:00,
2013-07-26 06:23:00,61.0,60.4,30.05,ESE,107,0.0,0.0,98,0.00,CLR,FEW,0.00,WeatherDisplay:10.37,2013-07-26 11:23:00,
2013-07-26 06:28:00,61.1,60.5,30.05,ESE,107,0.0,0.0,98,0.00,CLR,FEW,0.00,WeatherDisplay:10.37,2013-07-26 11:28:00,
2013-07-26 06:33:00,61.2,60.6,30.06,ESE,107,0.0,0.0,98,0.00,CLR,FEW,0.00,WeatherDisplay:10.37,2013-07-26 11:33:00,
2013-07-26 06:38:00,61.3,60.7,30.06,ESE,107,0.0,0.0,98,0.00,CLR,FEW,0.00,WeatherDisplay:10.37,2013-07-26 11:38:00,
2013-07-26 06:43:00,61.4,60.8,30.06,ESE,107,0.0,0.0,98,0.00,CLR,FEW,0.00,WeatherDisplay:10.37,2013-07-26 11:43:00,
2013-07-26 06:48:00,61.5,60.9,30.06,ESE,107,0.0,0.0,98,0.00,CLR,FEW,0.00,WeatherDisplay:10.37,2013-07-26 11:48:00,
2013-07-26 06:53:00,61.6,61.0,30.06,ESE,107,0.0,0.0,98,0.00,CLR,FEW,0.00,WeatherDisplay:10.37,2013-07-26 11:53:00,
2013-07-26 06:58:00,61.7,61.1,30.06,ESE,107,0.0,0.0,98,0.00,CLR,FEW,0.00,WeatherDisplay:10.37,2013-07-26 11:58:00,
2013-07-26 07:03:00,61.8,61.2,30.06,ESE,107,0.0,0.0,98,0.00,CLR,FEW,0.00,WeatherDisplay:10.37,2013-07-26 12:03:00,
2013-07-26 07:08:00,61.9,61.3,30.06,ESE,107,0.0,0.0,98,0.00,CLR,FEW,0.00,WeatherDisplay:10.37,2013-07-26 12:08:00,
2013-07-26 07:13:00,62.0,61.4,30.06,ESE,107,0.0,0.0,98,0.00,CLR,FEW,0.00,WeatherDisplay:10.37,2013-07-26 12:13:00,
2013-07-26 07:18:00,62.2,61.6,30.06,ESE,107,0.0,0.0,98,0.00,CLR,FEW,0.00,WeatherDisplay:10.37,2013-07-26 12:18:00,
2013-07-26 07:23:00,62.5,61.9,30.06,ESE,107,0.0,0.0,98,0.00,CLR,FEW,0.00,WeatherDisplay:10.37,2013-07-26 12:23:00,
2013-07-26 07:28:00,62.8,62.2,30.06,ESE,107,0.0,0.0,98,0.00,CLR,FEW,0.00,WeatherDisplay:10.37,2013-07-26 12:28:00,
2013-07-26 07:33:00,63.1,62.5,30.06,ESE,107,0.0,0.0,98,0.00,CLR,FEW,0.00,WeatherDisplay:10.37,2013-07-26 12:33:00,
2013-07-26 07:38:00,63.5,62.9,30.06,ESE,107,0.0,0.0,98,0.00,CLR,FEW,0.00,WeatherDisplay:10.37,2013-07-26 12:38:00,
2013-07-26 07:43:00,64.0,63.4,30.06,ESE,107,0.0,0.0,98,0.00,CLR,FEW,0.00,WeatherDisplay:10.37,2013-07-26 12:43:00,
2013-07-26 07:48:00,64.5,63.9,30.06,ESE,107,0.0,0.0,98,0.00,CLR,FEW,0.00,WeatherDisplay:10.37,2013-07-26 12:48:00,
2013-07-26 07:53:00,64.8,64.2,30.06,ESE,107,0.0,0.0,98,0.00,CLR,FEW,0.00,WeatherDisplay:10.37,2013-07-26 12:53:00,
2013-07-26 07:59:00,65.6,64.4,30.05,ESE,107,0.0,0.0,96,0.00,CLR,FEW,0.00,WeatherDisplay:10.37,2013-07-26 12:59:00,
2013-07-26 08:04:00,66.1,64.6,30.05,ESE,107,0.0,0.0,95,0.00,CLR,FEW,0.00,WeatherDisplay:10.37,2013-07-26 13:04:00,
2013-07-26 08:09:00,66.6,64.8,30.05,ESE,104,0.0,0.0,94,0.00,CLR,FEW,0.00,WeatherDisplay:10.37,2013-07-26 13:09:00,
2013-07-26 08:14:00,67.3,65.5,30.05,ESE,104,0.0,0.0,94,0.00,CLR,FEW,0.00,WeatherDisplay:10.37,2013-07-26 13:14:00,
2013-07-26 08:19:00,68.0,65.6,30.05,ESE,104,0.0,0.0,92,0.00,CLR,FEW,0.00,WeatherDisplay:10.37,2013-07-26 13:19:00,
2013-07-26 08:24:00,68.7,65.3,30.06,ESE,104,0.0,0.0,89,0.00,CLR,FEW,0.00,WeatherDisplay:10.37,2013-07-26 13:24:00,
2013-07-26 08:29:00,69.4,65.7,30.06,ESE,104,0.0,0.0,88,0.00,CLR,FEW,0.00,WeatherDisplay:10.37,2013-07-26 13:29:00,
2013-07-26 08:34:00,69.9,65.2,30.06,East,79,0.0,0.0,85,0.00,CLR,FEW,0.00,WeatherDisplay:10.37,2013-07-26 13:34:00,
2013-07-26 08:39:00,70.4,64.3,30.06,East,79,0.0,0.0,81,0.00,CLR,FEW,0.00,WeatherDisplay:10.37,2013-07-26 13:39:00,
2013-07-26 08:44:00,70.8,65.4,30.05,ENE,59,0.0,0.0,83,0.00,CLR,FEW,0.00,WeatherDisplay:10.37,2013-07-26 13:44:00,
2013-07-26 08:49:00,71.2,65.8,30.06,North,5,0.0,0.0,83,0.00,CLR,FEW,0.00,WeatherDisplay:10.37,2013-07-26 13:49:00,
2013-07-26 08:54:00,71.7,64.8,30.05,North,5,0.0,0.0,79,0.00,CLR,FEW,0.00,WeatherDisplay:10.37,2013-07-26 13:54:00,
2013-07-26 08:59:00,72.1,65.2,30.05,North,5,0.0,0.0,79,0.00,CLR,FEW,0.00,WeatherDisplay:10.37,2013-07-26 13:59:00,
2013-07-26 09:04:00,72.4,65.2,30.06,North,5,0.0,0.0,78,0.00,CLR,FEW,0.00,WeatherDisplay:10.37,2013-07-26 14:04:00,
2013-07-26 09:09:00,72.8,65.9,30.06,North,5,0.0,0.0,79,0.00,CLR,FEW,0.00,WeatherDisplay:10.37,2013-07-26 14:09:00,
2013-07-26 09:14:00,73.2,66.3,30.06,North,5,0.0,0.0,79,0.00,CLR,FEW,0.00,WeatherDisplay:10.37,2013-07-26 14:14:00,
2013-07-26 09:19:00,74.1,66.4,30.06,NE,55,0.0,0.0,77,0.00,CLR,FEW,0.00,WeatherDisplay:10.37,2013-07-26 14:19:00,
2013-07-26 09:24:00,74.8,67.1,30.06,NE,55,0.0,0.0,77,0.00,CLR,FEW,0.00,WeatherDisplay:10.37,2013-07-26 14:24:00,
2013-07-26 09:29:00,75.0,65.8,30.06,South,174,0.0,0.0,73,0.00,CLR,FEW,0.00,WeatherDisplay:10.37,2013-07-26 14:29:00,
2013-07-26 09:34:00,75.4,66.1,30.06,SSE,156,0.0,0.0,73,0.00,CLR,FEW,0.00,WeatherDisplay:10.37,2013-07-26 14:34:00,
2013-07-26 09:39:00,76.1,66.4,30.06,SSE,156,0.0,0.0,72,0.00,CLR,FEW,0.00,WeatherDisplay:10.37,2013-07-26 14:39:00,
2013-07-26 09:44:00,76.6,67.7,30.06,SSE,161,0.0,0.0,74,0.00,CLR,FEW,0.00,WeatherDisplay:10.37,2013-07-26 14:44:00,
2013-07-26 09:49:00,77.1,66.6,30.06,SW,236,0.0,0.0,70,0.00,CLR,FEW,0.00,WeatherDisplay:10.37,2013-07-26 14:49:00,
2013-07-26 09:54:00,77.8,69.6,30.06,SW,236,0.0,0.0,76,0.00,CLR,FEW,0.00,WeatherDisplay:10.37,2013-07-26 14:54:00,
2013-07-26 09:59:00,78.1,65.8,30.06,SW,236,0.0,0.0,66,0.00,CLR,FEW,0.00,WeatherDisplay:10.37,2013-07-26 14:59:00,
2013-07-26 10:04:00,78.5,66.6,30.06,WSW,237,0.0,0.0,67,0.00,CLR,FEW,0.00,WeatherDisplay:10.37,2013-07-26 15:04:00,
2013-07-26 10:09:00,78.7,67.7,30.06,SW,236,0.0,0.0,69,0.00,CLR,FEW,0.00,WeatherDisplay:10.37,2013-07-26 15:09:00,
2013-07-26 10:14:00,78.7,65.9,30.06,SW,216,0.0,0.0,65,0.00,CLR,FEW,0.00,WeatherDisplay:10.37,2013-07-26 15:14:00,
2013-07-26 10:19:00,78.9,66.6,30.06,SW,216,0.0,0.0,66,0.00,CLR,FEW,0.00,WeatherDisplay:10.37,2013-07-26 15:19:00,
2013-07-26 10:24:00,79.0,68.0,30.06,NW,304,0.0,0.0,69,0.00,CLR,FEW,0.00,WeatherDisplay:10.37,2013-07-26 15:24:00,
2013-07-26 10:29:00,78.9,66.6,30.06,North,355,0.0,0.0,66,0.00,CLR,FEW,0.00,WeatherDisplay:10.37,2013-07-26 15:29:00,
2013-07-26 10:34:00,78.8,69.0,30.06,North,355,0.0,0.0,72,0.00,CLR,FEW,0.00,WeatherDisplay:10.37,2013-07-26 15:34:00,
2013-07-26 10:39:00,78.7,67.2,30.06,WNW,296,0.0,0.0,68,0.00,CLR,FEW,0.00,WeatherDisplay:10.37,2013-07-26 15:39:00,
2013-07-26 10:44:00,78.7,67.2,30.06,West,261,0.0,0.0,68,0.00,CLR,FEW,0.00,WeatherDisplay:10.37,2013-07-26 15:44:00,
2013-07-26 10:49:00,78.8,67.8,30.06,WNW,296,0.0,0.0,69,0.00,CLR,FEW,0.00,WeatherDisplay:10.37,2013-07-26 15:49:00,
2013-07-26 10:54:00,79.0,68.0,30.06,NW,311,0.0,0.0,69,0.00,CLR,FEW,0.00,WeatherDisplay:10.37,2013-07-26 15:54:00,
2013-07-26 10:59:00,78.9,66.1,30.06,NNE,17,0.0,0.0,65,0.00,CLR,FEW,0.00,WeatherDisplay:10.37,2013-07-26 15:59:00,
2013-07-26 11:04:00,78.9,67.4,30.06,NNW,327,0.0,0.0,68,0.00,CLR,FEW,0.00,WeatherDisplay:10.37,2013-07-26 16:04:00,
2013-07-26 11:09:00,79.0,67.1,30.06,NNE,13,0.0,0.0,67,0.00,CLR,FEW,0.00,WeatherDisplay:10.37,2013-07-26 16:09:00,
2013-07-26 11:14:00,79.3,67.0,30.06,ESE,111,0.0,0.0,66,0.00,CLR,FEW,0.00,WeatherDisplay:10.37,2013-07-26 16:14:00,
2013-07-26 11:19:00,79.7,66.9,30.05,NE,55,0.0,0.0,65,0.00,CLR,FEW,0.00,WeatherDisplay:10.37,2013-07-26 16:19:00,
2013-07-26 11:24:00,80.2,68.7,30.05,WNW,292,0.0,0.0,68,0.00,FEW,,0.00,WeatherDisplay:10.37,2013-07-26 16:24:00,
2013-07-26 11:29:00,80.2,68.2,30.05,WSW,242,0.0,0.0,67,0.00,FEW,,0.00,WeatherDisplay:10.37,2013-07-26 16:29:00,
2013-07-26 11:34:00,80.0,67.2,30.05,West,271,0.0,0.0,65,0.00,FEW,,0.00,WeatherDisplay:10.37,2013-07-26 16:34:00,
2013-07-26 11:39:00,79.7,67.3,30.05,North,5,0.0,0.0,66,0.00,FEW,,0.00,WeatherDisplay:10.37,2013-07-26 16:39:00,
2013-07-26 11:44:00,79.8,67.0,30.05,NW,308,0.0,0.0,65,0.00,FEW,,0.00,WeatherDisplay:10.37,2013-07-26 16:44:00,
2013-07-26 11:49:00,80.4,67.6,30.05,NNW,331,0.0,0.0,65,0.00,FEW,,0.00,WeatherDisplay:10.37,2013-07-26 16:49:00,
2013-07-26 11:55:00,80.4,67.6,30.05,West,269,0.0,0.0,65,0.00,FEW,,0.00,WeatherDisplay:10.37,2013-07-26 16:55:00,
2013-07-26 12:00:00,80.2,67.8,30.05,WNW,290,0.0,0.0,66,0.00,FEW,,0.00,WeatherDisplay:10.37,2013-07-26 17:00:00,
2013-07-26 12:05:00,80.0,68.9,30.05,SW,233,0.0,0.0,69,0.00,SCT,FEW,0.00,WeatherDisplay:10.37,2013-07-26 17:05:00,
2013-07-26 12:10:00,79.4,65.7,30.05,SW,233,0.0,0.0,63,0.00,SCT,FEW,0.00,WeatherDisplay:10.37,2013-07-26 17:10:00,
2013-07-26 12:15:00,79.8,66.1,30.04,WNW,288,0.0,0.0,63,0.00,SCT,FEW,0.00,WeatherDisplay:10.37,2013-07-26 17:15:00,
2013-07-26 12:20:00,80.2,66.9,30.05,South,179,0.0,0.0,64,0.00,SCT,FEW,0.00,WeatherDisplay:10.37,2013-07-26 17:20:00,
2013-07-26 12:25:00,80.5,68.1,30.05,NNW,329,0.0,0.0,66,0.00,SCT,FEW,0.00,WeatherDisplay:10.37,2013-07-26 17:25:00,
2013-07-26 12:30:00,80.7,67.4,30.05,SSW,197,0.0,0.0,64,0.00,SCT,FEW,0.00,WeatherDisplay:10.37,2013-07-26 17:30:00,
2013-07-26 12:35:00,80.8,68.8,30.05,NW,323,0.0,0.0,67,0.00,SCT,FEW,0.00,WeatherDisplay:10.37,2013-07-26 17:35:00,
2013-07-26 12:40:00,80.6,66.4,30.04,South,180,0.0,0.0,62,0.00,SCT,FEW,0.00,WeatherDisplay:10.37,2013-07-26 17:40:00,
2013-07-26 12:45:00,80.8,66.1,30.04,WNW,290,0.0,0.0,61,0.00,SCT,FEW,0.00,WeatherDisplay:10.37,2013-07-26 17:45:00,
2013-07-26 12:50:00,81.0,66.3,30.04,WSW,242,0.0,0.0,61,0.00,SCT,FEW,0.00,WeatherDisplay:10.37,2013-07-26 17:50:00,
2013-07-26 12:55:00,81.5,64.8,30.04,SSW,200,0.0,0.0,57,0.00,SCT,FEW,0.00,WeatherDisplay:10.37,2013-07-26 17:55:00,
2013-07-26 13:00:00,82.1,69.2,30.04,SSE,163,0.0,0.0,65,0.00,SCT,FEW,0.00,WeatherDisplay:10.37,2013-07-26 18:00:00,
2013-07-26 13:05:00,82.4,68.5,30.04,WNW,285,0.0,0.0,63,0.00,SCT,FEW,0.00,WeatherDisplay:10.37,2013-07-26 18:05:00,
2013-07-26 13:10:00,82.8,68.0,30.04,WNW,286,0.0,0.0,61,0.00,SCT,FEW,0.00,WeatherDisplay:10.37,2013-07-26 18:10:00,
2013-07-26 13:15:00,82.7,67.9,30.04,West,278,0.0,0.0,61,0.00,SCT,FEW,0.00,WeatherDisplay:10.37,2013-07-26 18:15:00,
2013-07-26 13:20:00,82.6,69.2,30.04,SW,234,0.0,0.0,64,0.00,SCT,FEW,0.00,WeatherDisplay:10.37,2013-07-26 18:20:00,
2013-07-26 13:25:00,82.7,66.4,30.04,NNW,336,0.0,0.0,58,0.00,SCT,FEW,0.00,WeatherDisplay:10.37,2013-07-26 18:25:00,
2013-07-26 13:30:00,82.3,67.5,30.04,South,185,0.0,0.0,61,0.00,SCT,FEW,0.00,WeatherDisplay:10.37,2013-07-26 18:30:00,
2013-07-26 13:35:00,82.0,68.6,30.04,WSW,256,0.0,0.0,64,0.00,SCT,FEW,0.00,WeatherDisplay:10.37,2013-07-26 18:35:00,
2013-07-26 13:40:00,82.1,67.8,30.03,SW,229,0.0,0.0,62,0.00,SCT,FEW,0.00,WeatherDisplay:10.37,2013-07-26 18:40:00,
2013-07-26 13:45:00,82.6,67.8,30.03,South,189,0.0,0.0,61,0.00,SCT,FEW,0.00,WeatherDisplay:10.37,2013-07-26 18:45:00,
2013-07-26 13:50:00,82.8,67.0,30.03,ESE,116,0.0,0.0,59,0.00,SCT,FEW,0.00,WeatherDisplay:10.37,2013-07-26 18:50:00,
2013-07-26 13:55:00,83.1,66.3,30.03,NW,306,0.0,0.0,57,0.00,SCT,FEW,0.00,WeatherDisplay:10.37,2013-07-26 18:55:00,
2013-07-26 14:00:00,83.2,67.9,30.03,SW,219,0.0,0.0,60,0.00,SCT,FEW,0.00,WeatherDisplay:10.37,2013-07-26 19:00:00,
2013-07-26 14:05:00,83.4,66.6,30.03,SSW,198,0.0,0.0,57,0.00,FEW,,0.00,WeatherDisplay:10.37,2013-07-26 19:05:00,
2013-07-26 14:10:00,83.1,65.3,30.03,NW,311,0.0,0.0,55,0.00,FEW,,0.00,WeatherDisplay:10.37,2013-07-26 19:10:00,
2013-07-26 14:15:00,83.1,66.8,30.03,West,279,0.0,0.0,58,0.00,FEW,,0.00,WeatherDisplay:10.37,2013-07-26 19:15:00,
2013-07-26 14:20:00,83.4,66.1,30.03,NW,315,0.0,0.0,56,0.00,FEW,,0.00,WeatherDisplay:10.37,2013-07-26 19:20:00,
2013-07-26 14:25:00,83.6,66.2,30.03,South,184,0.0,0.0,56,0.00,FEW,,0.00,WeatherDisplay:10.37,2013-07-26 19:25:00,
2013-07-26 14:30:00,83.6,64.7,30.03,SSE,159,0.0,0.0,53,0.00,FEW,,0.00,WeatherDisplay:10.37,2013-07-26 19:30:00,
2013-07-26 14:35:00,83.5,66.7,30.03,West,260,0.0,0.0,57,0.00,FEW,,0.00,WeatherDisplay:10.37,2013-07-26 19:35:00,
2013-07-26 14:40:00,83.4,63.4,30.03,West,270,0.0,0.0,51,0.00,FEW,,0.00,WeatherDisplay:10.37,2013-07-26 19:40:00,
2013-07-26 14:45:00,83.5,66.7,30.03,NW,311,0.0,0.0,57,0.00,FEW,,0.00,WeatherDisplay:10.37,2013-07-26 19:45:00,
2013-07-26 14:50:00,83.9,67.0,30.03,NW,311,0.0,0.0,57,0.00,FEW,,0.00,WeatherDisplay:10.37,2013-07-26 19:50:00,
2013-07-26 14:55:00,84.1,67.2,30.02,NW,325,0.0,0.0,57,0.00,FEW,,0.00,WeatherDisplay:10.37,2013-07-26 19:55:00,
2013-07-26 15:00:00,83.9,66.5,30.02,WNW,290,0.0,0.0,56,0.00,FEW,,0.00,WeatherDisplay:10.37,2013-07-26 20:00:00,
2013-07-26 15:05:00,83.6,67.8,30.02,West,275,0.0,0.0,59,0.00,SCT,FEW,0.00,WeatherDisplay:10.37,2013-07-26 20:05:00,
2013-07-26 15:10:00,83.5,65.6,30.02,SSW,211,0.0,0.0,55,0.00,SCT,FEW,0.00,WeatherDisplay:10.37,2013-07-26 20:10:00,
2013-07-26 15:15:00,83.4,69.5,30.01,WNW,295,0.0,0.0,63,0.00,SCT,FEW,0.00,WeatherDisplay:10.37,2013-07-26 20:15:00,
2013-07-26 15:20:00,83.2,68.3,30.01,SW,225,0.0,0.0,61,0.00,SCT,FEW,0.00,WeatherDisplay:10.37,2013-07-26 20:20:00,
2013-07-26 15:25:00,83.1,66.8,30.01,SSW,213,0.0,0.0,58,0.00,SCT,FEW,0.00,WeatherDisplay:10.37,2013-07-26 20:25:00,
2013-07-26 15:30:00,83.1,68.7,30.01,WNW,290,0.0,0.0,62,0.00,SCT,FEW,0.00,WeatherDisplay:10.37,2013-07-26 20:30:00,
2013-07-26 15:35:00,82.6,68.3,30.01,NE,53,0.0,0.0,62,0.00,SCT,FEW,0.00,WeatherDisplay:10.37,2013-07-26 20:35:00,
2013-07-26 15:40:00,82.5,67.2,30.01,NNW,342,0.0,0.0,60,0.00,SCT,FEW,0.00,WeatherDisplay:10.37,2013-07-26 20:40:00,
2013-07-26 15:45:00,82.7,66.4,30.01,NW,323,0.0,0.0,58,0.00,SCT,FEW,0.00,WeatherDisplay:10.37,2013-07-26 20:45:00,
2013-07-26 15:50:00,82.6,68.7,30.01,WNW,302,0.0,0.0,63,0.00,SCT,FEW,0.00,WeatherDisplay:10.37,2013-07-26 20:50:00,
2013-07-26 15:55:00,82.1,68.3,30.01,NW,304,0.0,0.0,63,0.00,SCT,FEW,0.00,WeatherDisplay:10.37,2013-07-26 20:55:00,
2013-07-26 16:00:00,81.6,68.2,30.01,WNW,303,0.0,0.0,64,0.00,SCT,FEW,0.00,WeatherDisplay:10.37,2013-07-26 21:00:00,
2013-07-26 16:05:00,82.0,70.0,30.01,WNW,303,0.0,0.0,67,0.00,SCT,FEW,0.00,WeatherDisplay:10.37,2013-07-26 21:05:00,
2013-07-26 16:10:00,82.5,69.5,30.01,WNW,296,0.0,0.0,65,0.00,SCT,FEW,0.00,WeatherDisplay:10.37,2013-07-26 21:10:00,
2013-07-26 16:15:00,82.6,69.6,30.01,WNW,299,0.0,0.0,65,0.00,SCT,FEW,0.00,WeatherDisplay:10.37,2013-07-26 21:15:00,
2013-07-26 16:21:00,82.3,68.4,30.01,WSW,242,0.0,0.0,63,0.00,SCT,FEW,0.00,WeatherDisplay:10.37,2013-07-26 21:21:00,
2013-07-26 16:26:00,81.8,67.5,30.01,WSW,246,0.0,0.0,62,0.00,SCT,FEW,0.00,WeatherDisplay:10.37,2013-07-26 21:26:00,
2013-07-26 16:31:00,82.0,69.5,30.01,ENE,63,0.0,0.0,66,0.00,SCT,FEW,0.00,WeatherDisplay:10.37,2013-07-26 21:31:00,
2013-07-26 16:36:00,82.1,66.8,30.01,WNW,292,0.0,0.0,60,0.00,SCT,FEW,0.00,WeatherDisplay:10.37,2013-07-26 21:36:00,
2013-07-26 16:41:00,82.2,70.1,30.01,NNW,343,0.0,0.0,67,0.00,SCT,FEW,0.00,WeatherDisplay:10.37,2013-07-26 21:41:00,
2013-07-26 16:46:00,81.9,67.1,30.01,NNW,327,0.0,0.0,61,0.00,SCT,FEW,0.00,WeatherDisplay:10.37,2013-07-26 21:46:00,
2013-07-26 16:51:00,81.9,66.6,30.01,NNW,341,0.0,0.0,60,0.00,SCT,FEW,0.00,WeatherDisplay:10.37,2013-07-26 21:51:00,
2013-07-26 16:56:00,81.9,69.0,30.01,NW,325,0.0,0.0,65,0.00,SCT,FEW,0.00,WeatherDisplay:10.37,2013-07-26 21:56:00,
2013-07-26 17:01:00,81.9,68.5,30.01,WNW,288,0.0,0.0,64,0.00,FEW,,0.00,WeatherDisplay:10.37,2013-07-26 22:01:00,
2013-07-26 17:06:00,81.7,69.2,30.01,NNW,327,0.0,0.0,66,0.00,FEW,,0.00,WeatherDisplay:10.37,2013-07-26 22:06:00,
2013-07-26 17:11:00,81.3,68.4,30.01,SW,232,0.0,0.0,65,0.00,FEW,,0.00,WeatherDisplay:10.37,2013-07-26 22:11:00,
2013-07-26 17:16:00,81.2,68.8,30.01,WNW,283,0.0,0.0,66,0.00,FEW,,0.00,WeatherDisplay:10.37,2013-07-26 22:16:00,
2013-07-26 17:21:00,81.1,70.0,30.01,NNW,330,0.0,0.0,69,0.00,FEW,,0.00,WeatherDisplay:10.37,2013-07-26 22:21:00,
2013-07-26 17:26:00,80.9,70.2,30.01,NNW,330,0.0,0.0,70,0.00,FEW,,0.00,WeatherDisplay:10.37,2013-07-26 22:26:00,
2013-07-26 17:31:00,80.6,67.7,30.01,WNW,286,0.0,0.0,65,0.00,FEW,,0.00,WeatherDisplay:10.37,2013-07-26 22:31:00,
2013-07-26 17:36:00,80.3,70.4,30.01,WNW,286,0.0,0.0,72,0.00,FEW,,0.00,WeatherDisplay:10.37,2013-07-26 22:36:00,
2013-07-26 17:41:00,80.0,70.2,30.01,NW,304,0.0,0.0,72,0.00,FEW,,0.00,WeatherDisplay:10.37,2013-07-26 22:41:00,
2013-07-26 17:46:00,79.6,70.2,30.01,NW,312,0.0,0.0,73,0.00,FEW,,0.00,WeatherDisplay:10.37,2013-07-26 22:46:00,
2013-07-26 17:51:00,79.2,69.8,30.01,NW,312,0.0,0.0,73,0.00,FEW,,0.00,WeatherDisplay:10.37,2013-07-26 22:51:00,
2013-07-26 17:57:00,78.7,67.7,30.01,WNW,296,0.0,0.0,69,0.00,FEW,,0.00,WeatherDisplay:10.37,2013-07-26 22:57:00,
2013-07-26 18:02:00,78.4,69.4,30.01,West,277,0.0,0.0,74,0.00,CLR,FEW,0.00,WeatherDisplay:10.37,2013-07-26 23:02:00,
2013-07-26 18:07:00,78.0,69.0,30.01,West,261,0.0,0.0,74,0.00,CLR,FEW,0.00,WeatherDisplay:10.37,2013-07-26 23:07:00,
2013-07-26 18:12:00,77.6,69.0,30.01,West,261,0.0,0.0,75,0.00,CLR,FEW,0.00,WeatherDisplay:10.37,2013-07-26 23:12:00,
2013-07-26 18:17:00,77.2,69.4,30.01,West,261,0.0,0.0,77,0.00,CLR,FEW,0.00,WeatherDisplay:10.37,2013-07-26 23:17:00,
2013-07-26 19:48:00,73.5,67.7,30.00,West,263,0.0,0.0,82,0.00,CLR,FEW,0.00,WeatherDisplay:10.37,2013-07-27 00:48:00,
2013-07-26 19:53:00,73.3,67.5,30.00,West,263,0.0,0.0,82,0.00,CLR,FEW,0.00,WeatherDisplay:10.37,2013-07-27 00:53:00,
2013-07-26 19:58:00,73.0,67.2,30.00,West,263,0.0,0.0,82,0.00,CLR,FEW,0.00,WeatherDisplay:10.37,2013-07-27 00:58:00,
2013-07-26 20:03:00,72.8,67.0,30.00,West,263,0.0,0.0,82,0.00,FEW,,0.00,WeatherDisplay:10.37,2013-07-27 01:03:00,
2013-07-26 20:08:00,72.5,66.7,29.99,NW,323,0.0,0.0,82,0.00,FEW,,0.00,WeatherDisplay:10.37,2013-07-27 01:08:00,
2013-07-26 20:13:00,72.3,66.8,29.99,NW,323,0.0,0.0,83,0.00,FEW,,0.00,WeatherDisplay:10.37,2013-07-27 01:13:00,
2013-07-26 20:18:00,72.1,66.6,29.99,NW,323,0.0,0.0,83,0.00,FEW,,0.00,WeatherDisplay:10.37,2013-07-27 01:18:00,
2013-07-26 20:23:00,71.8,66.4,29.99,NW,323,0.0,0.0,83,0.00,FEW,,0.00,WeatherDisplay:10.37,2013-07-27 01:23:00,
2013-07-26 20:28:00,71.6,66.5,29.99,NW,323,0.0,0.0,84,0.00,FEW,,0.00,WeatherDisplay:10.37,2013-07-27 01:28:00,
2013-07-26 20:33:00,71.5,66.8,29.99,NW,323,0.0,0.0,85,0.00,FEW,,0.00,WeatherDisplay:10.37,2013-07-27 01:33:00,
2013-07-26 20:38:00,71.4,66.7,29.99,NW,323,0.0,0.0,85,0.00,FEW,,0.00,WeatherDisplay:10.37,2013-07-27 01:38:00,
2013-07-26 20:43:00,71.3,66.9,29.99,NW,323,0.0,0.0,86,0.00,FEW,,0.00,WeatherDisplay:10.37,2013-07-27 01:43:00,
2013-07-26 20:48:00,71.1,67.0,29.99,NW,323,0.0,0.0,87,0.00,FEW,,0.00,WeatherDisplay:10.37,2013-07-27 01:48:00,
2013-07-26 20:53:00,71.0,66.9,29.99,NW,323,0.0,0.0,87,0.00,FEW,,0.00,WeatherDisplay:10.37,2013-07-27 01:53:00,
2013-07-26 20:58:00,70.8,67.1,29.99,NW,323,0.0,0.0,88,0.00,FEW,,0.00,WeatherDisplay:10.37,2013-07-27 01:58:00,
2013-07-26 21:03:00,70.7,67.3,29.99,NW,323,0.0,0.0,89,0.00,OVC,FEW,0.00,WeatherDisplay:10.37,2013-07-27 02:03:00,
2013-07-26 21:08:00,70.6,67.2,29.99,NW,323,0.0,0.0,89,0.00,OVC,FEW,0.00,WeatherDisplay:10.37,2013-07-27 02:08:00,
2013-07-26 21:13:00,70.6,67.2,29.99,NW,323,0.0,0.0,89,0.00,OVC,FEW,0.00,WeatherDisplay:10.37,2013-07-27 02:13:00,
2013-07-26 21:18:00,70.5,67.4,29.99,NW,323,0.0,0.0,90,0.00,OVC,FEW,0.00,WeatherDisplay:10.37,2013-07-27 02:18:00,
2013-07-26 21:23:00,70.5,67.4,29.99,NW,323,0.0,0.0,90,0.00,OVC,FEW,0.00,WeatherDisplay:10.37,2013-07-27 02:23:00,
2013-07-26 21:28:00,70.4,67.3,29.99,NW,323,0.0,0.0,90,0.00,OVC,FEW,0.00,WeatherDisplay:10.37,2013-07-27 02:28:00,
2013-07-26 21:33:00,70.3,67.5,29.99,NW,323,0.0,0.0,91,0.00,OVC,FEW,0.00,WeatherDisplay:10.37,2013-07-27 02:33:00,
2013-07-26 21:38:00,70.2,67.4,29.99,NW,323,0.0,0.0,91,0.00,OVC,FEW,0.00,WeatherDisplay:10.37,2013-07-27 02:38:00,
2013-07-26 21:43:00,70.2,67.4,29.99,NW,323,0.0,0.0,91,0.00,OVC,FEW,0.00,WeatherDisplay:10.37,2013-07-27 02:43:00,
2013-07-26 21:48:00,70.2,67.4,29.99,NW,323,0.0,0.0,91,0.00,OVC,FEW,0.00,WeatherDisplay:10.37,2013-07-27 02:48:00,
2013-07-26 21:54:00,70.1,67.3,29.98,NW,323,0.0,0.0,91,0.00,OVC,FEW,0.00,WeatherDisplay:10.37,2013-07-27 02:54:00,
2013-07-26 21:59:00,70.2,67.4,29.98,NW,323,0.0,0.0,91,0.00,OVC,FEW,0.00,WeatherDisplay:10.37,2013-07-27 02:59:00,
2013-07-26 22:04:00,70.3,67.5,29.98,NW,304,0.0,0.0,91,0.00,BKN,FEW,0.00,WeatherDisplay:10.37,2013-07-27 03:04:00,
2013-07-26 22:09:00,70.4,67.6,29.98,NW,304,0.0,0.0,91,0.00,BKN,FEW,0.00,WeatherDisplay:10.37,2013-07-27 03:09:00,
2013-07-26 22:14:00,70.3,67.5,29.98,NW,305,0.0,0.0,91,0.00,BKN,FEW,0.00,WeatherDisplay:10.37,2013-07-27 03:14:00,
2013-07-26 22:19:00,70.2,67.4,29.98,NW,305,0.0,0.0,91,0.00,BKN,FEW,0.00,WeatherDisplay:10.37,2013-07-27 03:19:00,
2013-07-26 22:24:00,70.1,67.7,29.97,NW,305,0.0,0.0,92,0.00,BKN,FEW,0.00,WeatherDisplay:10.37,2013-07-27 03:24:00,
2013-07-26 22:29:00,70.1,67.7,29.97,NW,305,0.0,0.0,92,0.00,BKN,FEW,0.00,WeatherDisplay:10.37,2013-07-27 03:29:00,
2013-07-26 22:34:00,70.0,67.6,29.97,NW,305,0.0,0.0,92,0.00,BKN,FEW,0.00,WeatherDisplay:10.37,2013-07-27 03:34:00,
2013-07-26 22:39:00,70.0,67.9,29.97,NW,305,0.0,0.0,93,0.00,BKN,FEW,0.00,WeatherDisplay:10.37,2013-07-27 03:39:00,
2013-07-26 22:44:00,70.1,68.0,29.96,NW,305,0.0,0.0,93,0.00,BKN,FEW,0.00,WeatherDisplay:10.37,2013-07-27 03:44:00,
2013-07-26 22:49:00,70.3,68.2,29.96,NW,305,0.0,0.0,93,0.00,BKN,FEW,0.00,WeatherDisplay:10.37,2013-07-27 03:49:00,
2013-07-26 22:54:00,70.4,68.3,29.96,SE,142,0.0,0.0,93,0.00,BKN,FEW,0.00,WeatherDisplay:10.37,2013-07-27 03:54:00,
2013-07-26 22:59:00,70.5,68.4,29.96,SE,142,0.0,0.0,93,0.00,BKN,FEW,0.00,WeatherDisplay:10.37,2013-07-27 03:59:00,
2013-07-26 23:01:00,70.5,68.4,29.96,SE,142,0.0,0.0,93,0.00,BKN,FEW,0.00,WeatherDisplay:10.37,2013-07-27 04:01:00,
2013-07-26 23:06:00,70.6,68.2,29.96,SE,142,0.0,0.0,92,0.00,BKN,FEW,0.00,WeatherDisplay:10.37,2013-07-27 04:06:00,
2013-07-26 23:11:00,70.5,68.1,29.95,SE,142,0.0,0.0,92,0.00,BKN,FEW,0.00,WeatherDisplay:10.37,2013-07-27 04:11:00,
2013-07-26 23:16:00,70.4,68.0,29.94,ENE,57,0.0,0.0,92,0.00,BKN,FEW,0.00,WeatherDisplay:10.37,2013-07-27 04:16:00,
2013-07-26 23:21:00,70.4,67.6,29.94,SE,125,0.0,0.0,91,0.00,BKN,FEW,0.00,WeatherDisplay:10.37,2013-07-27 04:21:00,
2013-07-26 23:27:00,70.6,67.8,29.94,ENE,64,0.0,0.0,91,0.00,BKN,FEW,0.00,WeatherDisplay:10.37,2013-07-27 04:27:00,
2013-07-26 23:32:00,70.8,67.7,29.94,ENE,65,0.0,0.0,90,0.00,BKN,FEW,0.00,WeatherDisplay:10.37,2013-07-27 04:32:00,
2013-07-26 23:37:00,71.0,67.3,29.94,NE,42,0.0,0.0,88,0.00,BKN,FEW,0.00,WeatherDisplay:10.37,2013-07-27 04:37:00,
2013-07-26 23:42:00,71.2,67.8,29.95,NE,42,0.0,0.0,89,0.00,BKN,FEW,0.00,WeatherDisplay:10.37,2013-07-27 04:42:00,
2013-07-26 23:47:00,71.1,67.4,29.95,ENE,72,0.0,0.0,88,0.00,BKN,FEW,0.00,WeatherDisplay:10.37,2013-07-27 04:47:00,
2013-07-26 23:52:00,71.2,67.1,29.96,ESE,123,0.0,0.0,87,0.00,BKN,FEW,0.00,WeatherDisplay:10.37,2013-07-27 04:52:00,
2013-07-26 23:57:00,71.3,67.2,29.96,ESE,123,0.0,0.0,87,0.00,BKN,FEW,0.00,WeatherDisplay:10.37,2013-07-27 04:57:00,